createdAt,value
2023-01-01T00:02:20.443Z,15.90
2023-01-01T00:07:23.255Z,15.90
2023-01-01T00:12:26.076Z,16.10
2023-01-01T00:17:30.230Z,16.00
2023-01-01T00:22:53.866Z,15.90
2023-01-01T00:27:56.033Z,15.80
2023-01-01T00:32:58.695Z,15.60
2023-01-01T00:38:01.410Z,15.60
2023-01-01T00:43:04.227Z,15.50
2023-01-01T00:48:07.121Z,15.40
2023-01-01T00:53:09.836Z,15.70
2023-01-01T00:58:12.711Z,15.60
2023-01-01T01:03:36.297Z,15.60
2023-01-01T01:08:44.661Z,15.70
2023-01-01T01:13:50.035Z,15.60
2023-01-01T01:18:54.704Z,15.70
2023-01-01T01:24:01.796Z,15.80
2023-01-01T01:29:04.592Z,16.20
2023-01-01T01:34:09.736Z,16.30
2023-01-01T01:39:16.551Z,16.20
2023-01-01T01:44:47.862Z,16.30
2023-01-01T01:49:57.706Z,16.30
2023-01-01T01:55:02.461Z,16.50
2023-01-01T02:00:10.960Z,16.30
2023-01-01T02:05:14.426Z,16.20
2023-01-01T02:10:17.456Z,16.20
2023-01-01T02:15:21.781Z,16.40
2023-01-01T02:20:47.144Z,16.40
2023-01-01T02:26:09.360Z,16.30
2023-01-01T02:31:22.814Z,16.30
2023-01-01T02:36:28.584Z,16.30
2023-01-01T02:41:45.457Z,16.50
2023-01-01T02:46:48.524Z,16.40
2023-01-01T02:52:20.040Z,16.40
2023-01-01T02:57:37.155Z,16.60
2023-01-01T03:02:54.846Z,16.70
2023-01-01T03:08:10.902Z,16.60
2023-01-01T03:13:38.559Z,16.50
2023-01-01T03:19:11.916Z,16.40
2023-01-01T03:24:32.898Z,16.50
2023-01-01T03:29:39.895Z,16.60
2023-01-01T03:34:50.765Z,16.50
2023-01-01T03:39:59.322Z,16.60
2023-01-01T03:45:06.853Z,16.60
2023-01-01T03:50:10.031Z,16.40
2023-01-01T03:55:32.385Z,16.60
2023-01-01T04:00:40.827Z,16.50
2023-01-01T04:05:44.556Z,16.20
2023-01-01T04:10:55.067Z,15.90
2023-01-01T04:15:57.741Z,15.30
2023-01-01T04:21:00.436Z,15.00
2023-01-01T04:26:03.139Z,14.70
2023-01-01T04:31:05.840Z,14.50
2023-01-01T04:36:10.993Z,13.90
2023-01-01T04:41:13.671Z,13.40
2023-01-01T04:46:17.500Z,13.10
2023-01-01T04:51:21.627Z,12.60
2023-01-01T04:56:24.354Z,12.10
2023-01-01T05:01:29.774Z,12.20
2023-01-01T05:06:32.561Z,11.80
2023-01-01T05:11:35.199Z,11.70
2023-01-01T05:16:39.972Z,11.40
2023-01-01T05:21:42.590Z,11.30
2023-01-01T05:26:45.666Z,11.10
2023-01-01T05:31:48.927Z,11.20
2023-01-01T05:36:51.603Z,10.90
2023-01-01T05:41:54.345Z,11.20
2023-01-01T05:46:57.326Z,11.20
2023-01-01T05:52:00.031Z,11.30
2023-01-01T05:57:02.698Z,11.00
2023-01-01T06:02:05.488Z,10.80
2023-01-01T06:07:08.285Z,10.90
2023-01-01T06:12:10.942Z,10.50
2023-01-01T06:17:13.585Z,10.60
2023-01-01T06:22:16.227Z,10.70
2023-01-01T06:27:18.906Z,10.70
2023-01-01T06:32:21.807Z,10.80
2023-01-01T06:37:24.620Z,10.60
2023-01-01T06:42:33.587Z,10.40
2023-01-01T06:47:37.346Z,10.60
2023-01-01T06:52:42.081Z,10.70
2023-01-01T06:57:44.735Z,10.70
2023-01-01T07:02:49.058Z,10.80
2023-01-01T07:07:51.934Z,10.60
2023-01-01T07:12:54.680Z,10.60
2023-01-01T07:17:57.293Z,10.70
2023-01-01T07:23:02.461Z,10.70
2023-01-01T07:28:05.080Z,10.60
2023-01-01T07:33:13.230Z,10.60
2023-01-01T07:38:16.418Z,10.60
2023-01-01T07:43:19.076Z,10.60
2023-01-01T07:48:21.922Z,10.50
2023-01-01T07:53:24.633Z,10.60
2023-01-01T07:58:27.353Z,10.50
2023-01-01T08:03:30.097Z,10.60
2023-01-01T08:08:32.852Z,10.60
2023-01-01T08:13:35.828Z,10.70
2023-01-01T08:18:38.782Z,10.70
2023-01-01T08:23:41.540Z,10.80
2023-01-01T08:28:44.922Z,10.90
2023-01-01T08:33:47.699Z,11.10
2023-01-01T08:38:50.478Z,11.20
2023-01-01T08:43:53.263Z,11.30
2023-01-01T08:48:55.887Z,11.40
2023-01-01T08:53:58.567Z,11.40
2023-01-01T08:59:04.548Z,11.40
2023-01-01T09:04:15.172Z,11.60
2023-01-01T09:09:19.737Z,11.60
2023-01-01T09:14:23.125Z,11.70
2023-01-01T09:19:26.621Z,12.00
2023-01-01T09:24:29.306Z,12.60
2023-01-01T09:29:32.311Z,13.80
2023-01-01T09:34:35.007Z,13.50
2023-01-01T09:39:37.755Z,13.20
2023-01-01T09:44:52.414Z,12.80
2023-01-01T09:50:01.089Z,12.60
2023-01-01T09:55:10.050Z,13.30
2023-01-01T10:00:18.558Z,19.40
2023-01-01T10:05:56.004Z,22.00
2023-01-01T10:11:15.252Z,22.80
2023-01-01T10:16:37.667Z,23.40
2023-01-01T10:21:47.306Z,24.10
2023-01-01T10:26:52.656Z,25.70
2023-01-01T10:31:58.063Z,24.90
2023-01-01T10:37:02.887Z,25.70
2023-01-01T10:42:05.616Z,25.90
2023-01-01T10:47:31.594Z,25.40
2023-01-01T10:52:40.948Z,25.50
2023-01-01T10:57:43.906Z,26.60
2023-01-01T11:02:47.239Z,25.70
2023-01-01T11:07:50.519Z,25.00
2023-01-01T11:13:10.085Z,24.40
2023-01-01T11:18:20.176Z,24.00
2023-01-01T11:23:38.469Z,24.50
2023-01-01T11:28:42.068Z,24.90
2023-01-01T11:33:54.824Z,25.40
2023-01-01T11:39:22.233Z,26.20
2023-01-01T11:44:42.226Z,25.40
2023-01-01T11:49:45.147Z,24.90
2023-01-01T11:54:48.800Z,23.30
2023-01-01T12:00:01.108Z,21.90
2023-01-01T12:05:32.721Z,21.70
2023-01-01T12:11:03.976Z,21.30
2023-01-01T12:16:12.453Z,20.60
2023-01-01T12:21:20.263Z,20.00
2023-01-01T12:26:34.657Z,20.40
2023-01-01T12:31:43.483Z,21.40
2023-01-01T12:37:11.176Z,21.80
2023-01-01T12:42:29.338Z,21.20
2023-01-01T12:47:50.179Z,21.40
2023-01-01T12:53:02.129Z,21.60
2023-01-01T12:58:20.404Z,21.40
2023-01-01T13:03:37.037Z,21.30
2023-01-01T13:08:42.128Z,21.20
2023-01-01T13:13:44.855Z,20.80
2023-01-01T13:18:50.589Z,20.40
2023-01-01T13:23:56.283Z,19.30
2023-01-01T13:28:59.060Z,18.80
2023-01-01T13:34:40.521Z,17.90
2023-01-01T13:40:03.304Z,17.30
2023-01-01T13:45:52.329Z,16.40
2023-01-01T13:51:02.827Z,15.80
2023-01-01T13:56:11.727Z,15.40
2023-01-01T14:01:40.800Z,15.00
2023-01-01T14:06:49.915Z,14.30
2023-01-01T14:11:52.725Z,14.20
2023-01-01T14:17:01.249Z,13.90
2023-01-01T14:22:12.266Z,13.60
2023-01-01T14:27:21.073Z,13.40
2023-01-01T14:32:25.499Z,13.00
2023-01-01T14:37:28.623Z,12.70
2023-01-01T14:42:32.562Z,12.60
2023-01-01T14:47:36.642Z,12.10
2023-01-01T14:52:40.148Z,12.00
2023-01-01T14:57:48.197Z,11.50
2023-01-01T15:02:51.148Z,11.40
2023-01-01T15:07:59.244Z,11.10
2023-01-01T15:13:06.571Z,11.10
2023-01-01T15:18:35.470Z,10.90
2023-01-01T15:23:38.735Z,10.70
2023-01-01T15:28:43.187Z,10.70
2023-01-01T15:33:49.845Z,10.50
2023-01-01T15:38:53.396Z,10.20
2023-01-01T15:44:19.443Z,10.10
2023-01-01T15:49:26.597Z,10.00
2023-01-01T15:54:30.014Z,9.80
2023-01-01T15:59:35.677Z,9.80
2023-01-01T16:04:40.469Z,9.90
2023-01-01T16:09:44.055Z,9.90
2023-01-01T16:14:47.116Z,9.90
2023-01-01T16:19:51.803Z,10.00
2023-01-01T16:24:56.177Z,9.80
2023-01-01T16:29:58.946Z,9.70
2023-01-01T16:35:06.631Z,9.50
2023-01-01T16:40:12.787Z,9.50
2023-01-01T16:45:19.197Z,9.30
2023-01-01T16:50:22.233Z,9.30
2023-01-01T16:55:24.937Z,9.10
2023-01-01T17:00:27.833Z,9.10
2023-01-01T17:05:30.697Z,9.00
2023-01-01T17:10:33.400Z,9.10
2023-01-01T17:15:36.169Z,9.10
2023-01-01T17:20:38.887Z,9.10
2023-01-01T17:25:41.511Z,9.30
2023-01-01T17:30:44.277Z,9.40
2023-01-01T17:35:46.956Z,9.30
2023-01-01T17:40:49.953Z,9.30
2023-01-01T17:45:52.735Z,9.30
2023-01-01T17:50:55.503Z,9.10
2023-01-01T17:55:58.505Z,9.10
2023-01-01T18:01:30.990Z,8.90
2023-01-01T18:06:41.128Z,8.60
2023-01-01T18:11:45.416Z,8.30
2023-01-01T18:16:48.339Z,8.20
2023-01-01T18:21:51.125Z,8.10
2023-01-01T18:26:54.040Z,7.90
2023-01-01T18:31:57.782Z,7.90
2023-01-01T18:37:00.606Z,7.90
2023-01-01T18:42:32.572Z,8.00
2023-01-01T18:47:37.319Z,8.20
2023-01-01T18:52:40.025Z,8.30
2023-01-01T18:57:45.345Z,8.60
2023-01-01T19:03:04.687Z,8.70
2023-01-01T19:08:07.541Z,8.90
2023-01-01T19:13:22.601Z,8.70
2023-01-01T19:18:32.504Z,8.50
2023-01-01T19:23:39.024Z,8.40
2023-01-01T19:28:44.419Z,8.10
2023-01-01T19:33:47.446Z,8.20
2023-01-01T19:38:50.254Z,8.60
2023-01-01T19:43:53.059Z,9.10
2023-01-01T19:48:56.155Z,9.20
2023-01-01T19:53:59.216Z,9.20
2023-01-01T19:59:02.063Z,8.80
2023-01-01T20:04:05.105Z,8.40
2023-01-01T20:09:07.987Z,8.20
2023-01-01T20:14:10.637Z,7.90
2023-01-01T20:19:13.257Z,7.70
2023-01-01T20:24:17.826Z,7.30
2023-01-01T20:29:20.693Z,7.30
2023-01-01T20:34:23.912Z,7.20
2023-01-01T20:39:26.947Z,7.10
2023-01-01T20:44:30.421Z,7.20
2023-01-01T20:49:33.192Z,7.20
2023-01-01T20:54:36.045Z,7.10
2023-01-01T20:59:39.130Z,6.90
2023-01-01T21:04:42.092Z,6.80
2023-01-01T21:09:44.855Z,7.00
2023-01-01T21:14:48.026Z,6.90
2023-01-01T21:19:54.567Z,7.00
2023-01-01T21:25:16.849Z,7.00
2023-01-01T21:30:21.580Z,7.20
2023-01-01T21:35:31.882Z,7.10
2023-01-01T21:40:37.595Z,7.00
2023-01-01T21:45:45.035Z,6.90
2023-01-01T21:50:49.774Z,6.70
2023-01-01T21:55:54.436Z,6.70
2023-01-01T22:00:57.445Z,6.60
2023-01-01T22:06:00.284Z,6.50
2023-01-01T22:11:03.207Z,6.40
2023-01-01T22:16:10.083Z,6.40
2023-01-01T22:21:18.428Z,6.30
2023-01-01T22:26:28.093Z,6.40
2023-01-01T22:31:33.723Z,6.40
2023-01-01T22:36:37.036Z,6.10
2023-01-01T22:41:40.508Z,6.20
2023-01-01T22:46:43.434Z,6.00
2023-01-01T22:51:47.740Z,6.00
2023-01-01T22:56:50.564Z,5.90
2023-01-01T23:01:53.401Z,5.90
2023-01-01T23:06:56.553Z,6.00
2023-01-01T23:11:59.412Z,6.00
2023-01-01T23:17:02.146Z,5.90
2023-01-01T23:22:05.039Z,5.80
2023-01-01T23:27:09.617Z,5.70
2023-01-01T23:32:13.791Z,5.80
2023-01-01T23:37:17.038Z,5.70
2023-01-01T23:42:19.951Z,5.60
2023-01-01T23:47:22.720Z,5.60
2023-01-01T23:52:25.607Z,5.60
2023-01-01T23:57:28.365Z,5.60
